Aviation Digital Data Service (ADDS)

Output produced by METARs form (2114 UTC 16 February 2019)
found at http://www.aviationweather.gov/metar/data/
 
Forecast for: LEMO (MORON (SP-USAFB), ES)
Text: TAF LEMO 162000Z 1621/1706 09006KT CAVOK
Forecast period: 2100 UTC 16 February 2019 to 0600 UTC 17 February 2019
Forecast type: FROM: standard forecast or significant change
Winds: from the E (90 degrees) at 7 MPH (6 knots; 3.1 m/s)
Visibility: 6 or more miles 10+ km)
Ceiling: unknown
Clouds: missing
Weather: NSW  (no significant weather)